Time;durP1;ratioP1;P1;durP2;ratioP2;P2;SDS_P1;SDS_P2;PMS_P1;PMS_P2;Temp;Humidity;BMP_temperature;BMP_pressure;BME280_temperature;BME280_humidity;BME280_pressure;Samples;Min_cycle;Max_cycle;Signal;HPM_P1;HPM_P2
2023/05/08 00:02:34;;;;;;;2.17;0.80;;;16.10;99.90;;;;;;1894933;75;21090;-84
2023/05/08 00:05:26;;;;;;;1.67;0.72;;;16.10;99.90;;;;;;1914408;75;21070;-84
2023/05/08 00:08:17;;;;;;;1.07;0.80;;;16.10;99.90;;;;;;1903905;75;21176;-84
2023/05/08 00:11:08;;;;;;;0.80;0.70;;;16.10;99.90;;;;;;1902401;75;21106;-84
2023/05/08 00:14:01;;;;;;;1.10;0.62;;;16.10;99.90;;;;;;1906462;75;21141;-84
2023/05/08 00:16:52;;;;;;;1.02;0.70;;;16.10;99.90;;;;;;1915296;74;21113;-84
2023/05/08 00:19:43;;;;;;;0.93;0.70;;;16.00;99.90;;;;;;1861109;76;21130;-84
2023/05/08 00:22:35;;;;;;;1.65;0.80;;;16.00;99.90;;;;;;1845965;76;21119;-84
2023/05/08 00:25:27;;;;;;;0.98;0.72;;;16.00;99.90;;;;;;1853916;76;21071;-84
2023/05/08 00:28:18;;;;;;;1.98;0.80;;;16.10;99.90;;;;;;1853853;76;21155;-84
2023/05/08 00:31:10;;;;;;;0.72;0.62;;;16.10;99.90;;;;;;1856453;76;21126;-84
2023/05/08 00:34:02;;;;;;;1.65;0.70;;;16.20;99.90;;;;;;1861206;76;21100;-84
2023/05/08 00:36:53;;;;;;;1.65;0.70;;;16.20;99.90;;;;;;1852284;77;21126;-84
2023/05/08 00:39:44;;;;;;;1.00;0.70;;;16.10;99.90;;;;;;1848195;77;21152;-84
2023/05/08 00:42:36;;;;;;;2.17;0.90;;;16.10;99.90;;;;;;1845493;78;21136;-84
2023/05/08 00:45:31;;;;;;;1.60;1.00;;;16.00;99.90;;;;;;1845601;76;21156;-84
2023/05/08 00:48:23;;;;;;;1.32;1.00;;;16.00;99.90;;;;;;1853304;77;21107;-84
2023/05/08 00:51:15;;;;;;;1.02;0.85;;;16.00;99.90;;;;;;1855001;76;21114;-84
2023/05/08 00:54:06;;;;;;;0.93;0.80;;;16.00;99.90;;;;;;1853441;76;21141;-84
2023/05/08 00:56:58;;;;;;;1.70;0.85;;;16.00;99.90;;;;;;1864563;76;21190;-84
2023/05/08 01:02:31;;;;;;;1.95;0.80;;;16.00;99.90;;;;;;1947991;72;22193;-84
2023/05/08 01:05:23;;;;;;;1.25;0.80;;;16.00;99.90;;;;;;1922088;73;21122;-84
2023/05/08 01:08:14;;;;;;;0.78;0.70;;;15.90;99.90;;;;;;1929639;74;21098;-83
2023/05/08 01:11:12;;;;;;;0.80;0.60;;;16.00;99.90;;;;;;1924695;74;21048;-83
2023/05/08 01:14:10;;;;;;;1.30;0.68;;;15.90;99.90;;;;;;1904816;75;21092;-84
2023/05/08 01:17:05;;;;;;;1.00;0.65;;;15.80;99.90;;;;;;1904257;75;21158;-85
2023/05/08 01:20:13;;;;;;;0.98;0.60;;;15.70;99.90;;;;;;1904699;75;21101;-84
2023/05/08 01:23:30;;;;;;;1.75;0.70;;;15.70;99.90;;;;;;1904811;75;21172;-85
2023/05/08 01:30:05;;;;;;;0.82;0.70;;;15.60;99.90;;;;;;1956090;72;22253;-83
2023/05/08 01:33:00;;;;;;;1.27;0.60;;;15.60;99.90;;;;;;1803312;79;21146;-84
2023/05/08 01:35:54;;;;;;;1.30;0.60;;;15.60;99.90;;;;;;1866661;76;21054;-84
2023/05/08 01:38:50;;;;;;;2.62;0.60;;;15.60;99.90;;;;;;1866040;76;21146;-83
2023/05/08 01:41:44;;;;;;;1.52;0.60;;;15.60;99.90;;;;;;1916353;75;21101;-83
2023/05/08 01:44:38;;;;;;;1.37;1.00;;;15.60;99.90;;;;;;1895051;75;21094;-84
2023/05/08 01:47:32;;;;;;;1.15;1.05;;;15.50;99.90;;;;;;1917241;75;21323;-83
2023/05/08 01:50:28;;;;;;;2.33;1.22;;;15.50;99.90;;;;;;1899450;75;21107;-83
2023/05/08 01:53:22;;;;;;;3.22;1.42;;;15.50;99.90;;;;;;1884359;76;21648;-83
2023/05/08 01:56:16;;;;;;;2.22;1.20;;;15.60;99.90;;;;;;1914859;75;21621;-84
2023/05/08 01:59:08;;;;;;;3.67;1.55;;;15.50;99.90;;;;;;1894956;75;21617;-84
2023/05/08 02:02:01;;;;;;;1.50;1.30;;;15.50;99.90;;;;;;1917050;75;21102;-83
2023/05/08 02:04:54;;;;;;;4.70;1.35;;;15.60;99.90;;;;;;1879281;76;21055;-83
2023/05/08 02:07:49;;;;;;;1.10;1.00;;;15.60;99.90;;;;;;1891039;75;21184;-83
2023/05/08 02:10:41;;;;;;;1.72;0.85;;;15.60;99.90;;;;;;1908932;75;21670;-83
2023/05/08 02:13:35;;;;;;;1.07;0.98;;;15.40;99.90;;;;;;1909700;75;21098;-83
2023/05/08 02:16:29;;;;;;;1.42;0.90;;;15.30;99.90;;;;;;1897515;74;21094;-83
2023/05/08 02:19:22;;;;;;;4.95;1.00;;;15.30;99.90;;;;;;1904143;74;21195;-83
2023/05/08 02:22:15;;;;;;;0.80;0.70;;;15.20;99.90;;;;;;1894912;75;21184;-83
2023/05/08 02:25:08;;;;;;;1.47;0.82;;;15.10;99.90;;;;;;1910485;75;21141;-84
2023/05/08 02:30:40;;;;;;;0.88;0.70;;;15.10;99.90;;;;;;1957778;72;22206;-83
2023/05/08 02:33:32;;;;;;;2.27;0.93;;;15.20;99.90;;;;;;1895079;75;21522;-85
2023/05/08 02:36:25;;;;;;;2.30;0.90;;;15.30;99.90;;;;;;1894862;75;21119;-85
2023/05/08 02:39:20;;;;;;;2.17;0.90;;;15.30;99.90;;;;;;1894974;75;21098;-85
2023/05/08 02:42:11;;;;;;;1.35;0.82;;;15.30;99.90;;;;;;1898945;75;21099;-84
2023/05/08 02:45:04;;;;;;;1.15;0.80;;;15.30;99.90;;;;;;1883870;76;21600;-85
2023/05/08 02:50:42;;;;;;;1.55;1.00;;;15.20;99.90;;;;;;1952363;72;22249;-84
2023/05/08 02:53:40;;;;;;;1.40;0.95;;;15.20;99.90;;;;;;1932120;73;21085;-84
2023/05/08 02:56:38;;;;;;;1.63;0.80;;;15.20;99.90;;;;;;1932247;73;21442;-84
2023/05/08 02:59:33;;;;;;;1.65;0.80;;;15.20;99.90;;;;;;1917284;73;21168;-85
2023/05/08 03:02:28;;;;;;;2.45;1.20;;;15.20;99.90;;;;;;1917060;75;21199;-84
2023/05/08 03:05:23;;;;;;;2.55;1.30;;;15.30;99.90;;;;;;1917133;75;21110;-84
2023/05/08 03:08:18;;;;;;;2.40;1.50;;;15.40;99.90;;;;;;1917183;75;21107;-84
2023/05/08 03:11:13;;;;;;;2.65;1.50;;;15.40;99.90;;;;;;1917081;75;21103;-85
2023/05/08 03:14:06;;;;;;;1.75;1.30;;;15.50;99.90;;;;;;1917104;75;21090;-85
2023/05/08 03:17:00;;;;;;;2.92;1.10;;;15.50;99.90;;;;;;1917081;75;21232;-84
2023/05/08 03:19:54;;;;;;;0.90;0.80;;;15.50;99.90;;;;;;1917054;75;21089;-84
2023/05/08 03:22:48;;;;;;;1.27;0.90;;;15.50;99.90;;;;;;1917105;75;21102;-84
2023/05/08 03:25:42;;;;;;;2.45;0.90;;;15.40;99.90;;;;;;1930274;73;21095;-84
2023/05/08 03:28:37;;;;;;;2.65;1.00;;;15.40;99.90;;;;;;1919556;73;21213;-85
2023/05/08 03:31:31;;;;;;;3.75;1.32;;;15.40;99.90;;;;;;1916811;75;21198;-84
2023/05/08 03:34:24;;;;;;;3.05;1.10;;;15.30;99.90;;;;;;1916854;75;21094;-84
2023/05/08 03:37:15;;;;;;;1.37;1.27;;;15.40;99.90;;;;;;1916734;75;21127;-84
2023/05/08 03:40:10;;;;;;;3.17;1.27;;;15.40;99.90;;;;;;1917139;75;21093;-84
2023/05/08 03:43:03;;;;;;;3.75;1.32;;;15.40;99.90;;;;;;1916952;75;21569;-84
2023/05/08 03:45:56;;;;;;;2.25;1.32;;;15.30;99.90;;;;;;1916830;75;21654;-84
2023/05/08 03:48:49;;;;;;;2.12;0.98;;;15.40;99.90;;;;;;1916956;75;21185;-84
2023/05/08 03:51:42;;;;;;;3.25;1.20;;;15.40;99.90;;;;;;1931139;73;21716;-84
2023/05/08 03:54:33;;;;;;;3.17;1.40;;;15.40;99.90;;;;;;1919196;73;21090;-84
2023/05/08 03:57:28;;;;;;;1.45;1.10;;;15.40;99.90;;;;;;1916624;75;21112;-84
2023/05/08 04:03:10;;;;;;;2.58;1.15;;;15.40;99.90;;;;;;1959996;72;22193;-83
2023/05/08 04:06:05;;;;;;;1.37;1.10;;;15.40;99.90;;;;;;1916838;75;21556;-83
2023/05/08 04:09:03;;;;;;;1.37;0.95;;;15.40;99.90;;;;;;1917330;75;21065;-85
2023/05/08 04:12:01;;;;;;;1.47;1.30;;;15.50;99.90;;;;;;1919719;73;21048;-85
2023/05/08 04:14:57;;;;;;;2.52;1.35;;;15.40;99.90;;;;;;1929060;73;21125;-85
2023/05/08 04:17:52;;;;;;;1.25;1.10;;;15.40;99.90;;;;;;1934331;73;21511;-86
2023/05/08 04:20:47;;;;;;;1.50;1.10;;;15.40;99.90;;;;;;1938170;73;21102;-84
2023/05/08 04:23:42;;;;;;;3.33;0.90;;;15.40;99.90;;;;;;1916493;75;21109;-84
2023/05/08 04:26:35;;;;;;;1.10;1.00;;;15.50;99.90;;;;;;1917137;75;21122;-84
2023/05/08 04:29:28;;;;;;;1.72;1.00;;;15.50;99.90;;;;;;1917058;75;21565;-84
2023/05/08 04:32:20;;;;;;;1.98;1.22;;;15.50;99.90;;;;;;1916991;75;21172;-84
2023/05/08 04:37:53;;;;;;;3.10;1.15;;;15.50;99.90;;;;;;1950083;72;22221;-84
2023/05/08 04:40:44;;;;;;;2.20;0.90;;;15.50;99.90;;;;;;1883832;75;21566;-84
2023/05/08 04:43:36;;;;;;;1.00;0.90;;;15.50;99.90;;;;;;1897662;75;21086;-84
2023/05/08 04:46:28;;;;;;;1.60;1.20;;;15.50;99.90;;;;;;1894757;75;21094;-83
2023/05/08 04:49:19;;;;;;;1.20;1.10;;;15.60;99.90;;;;;;1894422;75;21122;-84
2023/05/08 04:52:12;;;;;;;1.82;1.00;;;15.60;99.90;;;;;;1896046;75;21099;-83
2023/05/08 04:55:03;;;;;;;2.40;0.90;;;15.60;99.90;;;;;;1899470;75;21107;-84
2023/05/08 04:57:57;;;;;;;3.10;1.02;;;15.70;99.90;;;;;;1906333;75;21134;-83
2023/05/08 05:00:48;;;;;;;1.37;0.90;;;15.70;99.90;;;;;;1883976;75;21142;-83
2023/05/08 05:03:39;;;;;;;1.22;1.02;;;15.70;99.90;;;;;;1887354;75;21167;-84
2023/05/08 05:09:10;;;;;;;1.67;1.20;;;15.70;99.90;;;;;;1943097;72;22154;-83
2023/05/08 05:12:02;;;;;;;1.52;1.10;;;15.70;99.90;;;;;;1884096;75;21254;-83
2023/05/08 05:14:54;;;;;;;2.72;1.30;;;15.70;99.90;;;;;;1905231;75;21090;-83
2023/05/08 05:17:45;;;;;;;1.32;1.10;;;15.80;99.90;;;;;;1900169;75;21090;-83
2023/05/08 05:20:38;;;;;;;2.17;1.00;;;15.80;99.90;;;;;;1894807;75;21487;-83
2023/05/08 05:23:30;;;;;;;1.50;1.10;;;15.70;99.90;;;;;;1894955;75;21110;-85
2023/05/08 05:29:02;;;;;;;1.37;0.98;;;15.80;99.90;;;;;;1949274;72;22258;-83
2023/05/08 05:31:54;;;;;;;1.65;1.20;;;15.80;99.90;;;;;;1883793;75;21111;-83
2023/05/08 05:34:46;;;;;;;2.10;1.35;;;15.90;99.90;;;;;;1892694;75;21107;-85
2023/05/08 05:37:37;;;;;;;1.42;1.10;;;16.00;99.90;;;;;;1884146;75;21090;-85
2023/05/08 05:40:29;;;;;;;1.25;0.88;;;16.00;99.90;;;;;;1872648;76;21110;-85
2023/05/08 05:43:21;;;;;;;1.50;1.00;;;16.10;99.90;;;;;;1904143;75;21107;-79
2023/05/08 05:46:13;;;;;;;3.42;0.90;;;16.20;99.90;;;;;;1882778;75;21570;-82
2023/05/08 05:49:05;;;;;;;3.17;1.10;;;16.30;99.90;;;;;;1905181;75;21141;-90
2023/05/08 05:51:58;;;;;;;3.35;1.20;;;16.30;99.90;;;;;;1872942;76;21146;-82
2023/05/08 05:54:49;;;;;;;3.25;1.12;;;16.40;99.90;;;;;;1890214;73;21213;-81
2023/05/08 05:57:40;;;;;;;0.90;0.75;;;16.50;99.90;;;;;;1871794;76;21546;-81
2023/05/08 06:00:32;;;;;;;1.30;1.10;;;16.60;99.90;;;;;;1893403;75;21055;-81
2023/05/08 06:03:23;;;;;;;2.30;1.07;;;16.70;99.90;;;;;;1880405;75;21621;-82
2023/05/08 06:06:15;;;;;;;1.50;0.90;;;16.70;99.90;;;;;;1885972;75;21141;-81
2023/05/08 06:09:06;;;;;;;3.45;0.90;;;16.80;99.90;;;;;;1882607;75;21155;-82
2023/05/08 06:11:58;;;;;;;2.10;0.88;;;16.80;99.90;;;;;;1893724;75;21164;-82
2023/05/08 06:14:51;;;;;;;3.95;1.35;;;16.90;99.90;;;;;;1892118;75;21231;-81
2023/05/08 06:17:42;;;;;;;2.67;1.30;;;17.00;99.90;;;;;;1889882;75;21071;-81
2023/05/08 06:20:33;;;;;;;1.87;1.40;;;17.00;99.90;;;;;;1882765;75;21152;-81
2023/05/08 06:23:24;;;;;;;2.75;1.42;;;17.10;99.90;;;;;;1883045;75;21091;-81
2023/05/08 06:26:16;;;;;;;1.25;1.00;;;17.20;99.90;;;;;;1904258;75;21095;-81
2023/05/08 06:29:07;;;;;;;1.67;1.40;;;17.30;99.90;;;;;;1878576;75;21079;-82
2023/05/08 06:31:59;;;;;;;1.50;1.40;;;17.30;99.90;;;;;;1884206;75;21099;-81
2023/05/08 06:34:50;;;;;;;1.55;1.40;;;17.10;99.90;;;;;;1882573;75;21095;-81
2023/05/08 06:40:30;;;;;;;3.92;1.37;;;17.20;99.90;;;;;;1942004;72;22149;-81
2023/05/08 06:43:21;;;;;;;1.98;1.27;;;17.20;99.90;;;;;;1896668;73;21154;-82
2023/05/08 06:46:14;;;;;;;1.62;1.20;;;17.40;99.90;;;;;;1890808;75;21206;-82
2023/05/08 06:49:08;;;;;;;1.70;1.37;;;17.40;99.90;;;;;;1910667;75;21164;-82
2023/05/08 06:52:00;;;;;;;3.20;1.40;;;17.40;99.90;;;;;;1903073;75;21095;-82
2023/05/08 06:54:51;;;;;;;1.62;1.10;;;17.50;99.90;;;;;;1884451;75;21071;-81
2023/05/08 06:57:43;;;;;;;1.10;1.00;;;17.50;99.90;;;;;;1905542;75;21107;-81
2023/05/08 07:00:35;;;;;;;1.92;1.30;;;17.50;99.90;;;;;;1887426;75;21620;-81
2023/05/08 07:03:26;;;;;;;2.70;1.42;;;17.50;99.90;;;;;;1897211;75;21100;-82
2023/05/08 07:06:18;;;;;;;3.33;1.65;;;17.50;99.90;;;;;;1898676;75;21110;-83
2023/05/08 07:09:10;;;;;;;5.97;1.82;;;17.70;99.90;;;;;;1907732;75;21091;-83
2023/05/08 07:12:02;;;;;;;1.90;1.70;;;17.70;99.90;;;;;;1905805;75;21470;-82
2023/05/08 07:14:54;;;;;;;2.58;1.85;;;17.70;99.90;;;;;;1905444;75;21078;-82
2023/05/08 07:17:46;;;;;;;4.55;1.72;;;17.70;99.90;;;;;;1899781;75;21135;-81
2023/05/08 07:20:37;;;;;;;5.20;2.20;;;17.70;99.90;;;;;;1894979;75;21391;-81
2023/05/08 07:23:31;;;;;;;3.35;2.30;;;17.80;99.90;;;;;;1894802;75;21082;-81
2023/05/08 07:26:23;;;;;;;2.72;1.95;;;17.80;99.90;;;;;;1894836;75;21125;-82
2023/05/08 07:29:14;;;;;;;1.92;1.70;;;17.70;99.90;;;;;;1899764;75;21106;-82
2023/05/08 07:32:08;;;;;;;2.20;1.65;;;17.70;99.90;;;;;;1896310;75;21329;-82
2023/05/08 07:37:39;;;;;;;2.27;1.55;;;17.80;99.90;;;;;;1957540;72;22163;-81
2023/05/08 07:40:31;;;;;;;2.15;1.40;;;17.90;99.90;;;;;;1900480;75;21111;-81
2023/05/08 07:43:22;;;;;;;1.62;1.52;;;17.80;99.90;;;;;;1894828;75;21188;-81
2023/05/08 07:46:18;;;;;;;2.83;1.40;;;17.80;99.90;;;;;;1895327;75;21039;-77
2023/05/08 07:49:09;;;;;;;2.70;1.37;;;18.00;99.90;;;;;;1913042;75;21110;-80
2023/05/08 07:52:00;;;;;;;1.90;1.42;;;18.10;99.90;;;;;;1916986;75;21185;-80
2023/05/08 07:54:52;;;;;;;2.58;1.40;;;18.10;99.90;;;;;;1897002;75;21059;-80
2023/05/08 07:57:44;;;;;;;2.40;1.17;;;18.20;99.90;;;;;;1894550;75;21178;-81
2023/05/08 08:00:35;;;;;;;3.02;1.62;;;18.10;99.90;;;;;;1892725;75;21106;-80
2023/05/08 08:03:27;;;;;;;1.70;1.52;;;18.10;99.90;;;;;;1903683;75;21129;-81
2023/05/08 08:06:19;;;;;;;3.62;1.70;;;18.10;99.90;;;;;;1898114;75;21244;-80
2023/05/08 08:09:11;;;;;;;1.62;1.52;;;18.00;99.90;;;;;;1894293;75;21487;-80
2023/05/08 08:12:02;;;;;;;2.22;2.02;;;18.10;99.90;;;;;;1894209;75;21205;-80
2023/05/08 08:14:53;;;;;;;2.45;2.05;;;18.10;99.90;;;;;;1895568;75;21167;-80
2023/05/08 08:17:45;;;;;;;3.52;2.60;;;18.10;99.90;;;;;;1899983;75;21213;-81
2023/05/08 08:23:17;;;;;;;3.55;3.25;;;18.20;99.90;;;;;;1953306;72;22237;-81
2023/05/08 08:26:08;;;;;;;3.35;3.05;;;18.20;99.90;;;;;;1898823;74;21122;-80
2023/05/08 08:28:59;;;;;;;3.25;2.95;;;18.10;99.90;;;;;;1899565;75;21575;-81
2023/05/08 08:31:51;;;;;;;3.37;3.08;;;18.10;99.90;;;;;;1916467;75;21165;-80
2023/05/08 08:34:42;;;;;;;4.00;2.83;;;18.10;99.90;;;;;;1910240;75;21137;-81
2023/05/08 08:37:33;;;;;;;7.47;3.22;;;18.20;99.90;;;;;;1894538;75;21597;-81
2023/05/08 08:40:26;;;;;;;2.95;2.62;;;18.20;99.90;;;;;;1883845;76;21167;-80
2023/05/08 08:43:21;;;;;;;3.45;2.60;;;18.20;99.90;;;;;;1896889;75;21550;-80
2023/05/08 08:46:14;;;;;;;3.47;3.17;;;18.30;99.90;;;;;;1894599;75;21167;-81
2023/05/08 08:49:07;;;;;;;3.15;2.87;;;18.40;99.90;;;;;;1913280;75;21097;-80
2023/05/08 08:52:02;;;;;;;2.98;2.67;;;18.50;99.90;;;;;;1881245;75;21218;-80
2023/05/08 08:54:55;;;;;;;3.20;2.05;;;18.70;99.90;;;;;;1883687;76;21102;-80
2023/05/08 08:57:51;;;;;;;3.33;2.12;;;18.90;99.90;;;;;;1895127;75;21114;-80
2023/05/08 09:00:42;;;;;;;2.98;2.00;;;19.00;99.90;;;;;;1890304;75;21600;-80
2023/05/08 09:03:34;;;;;;;3.80;2.35;;;19.20;99.90;;;;;;1883704;75;21165;-81
2023/05/08 09:06:26;;;;;;;3.60;2.35;;;19.20;99.90;;;;;;1900272;75;21111;-80
2023/05/08 09:09:18;;;;;;;2.30;2.10;;;19.20;99.90;;;;;;1894577;75;21624;-80
2023/05/08 09:12:10;;;;;;;3.58;2.70;;;19.20;99.90;;;;;;1895077;75;21180;-80
2023/05/08 09:15:01;;;;;;;3.58;2.80;;;19.10;99.90;;;;;;1894903;75;21110;-80
2023/05/08 09:17:53;;;;;;;2.85;2.55;;;19.10;99.90;;;;;;1899214;75;21583;-81
2023/05/08 09:20:45;;;;;;;3.30;3.00;;;19.10;99.90;;;;;;1895780;75;21071;-81
2023/05/08 09:23:38;;;;;;;3.02;2.70;;;19.10;99.90;;;;;;1885951;75;21666;-80
2023/05/08 09:26:31;;;;;;;2.95;2.47;;;19.10;99.90;;;;;;1880819;75;21158;-84
2023/05/08 09:29:23;;;;;;;2.75;2.40;;;19.00;99.90;;;;;;1884091;76;21106;-77
2023/05/08 09:34:59;;;;;;;2.27;2.05;;;18.90;99.90;;;;;;1945438;72;20184;-80
2023/05/08 09:37:52;;;;;;;2.02;1.75;;;19.00;99.90;;;;;;1906112;75;21186;-81
2023/05/08 09:43:23;;;;;;;6.55;1.50;;;18.90;99.90;;;;;;1963507;72;22170;-79
2023/05/08 09:46:26;;;;;;;1.87;1.70;;;18.90;99.90;;;;;;1923336;73;21093;-80
2023/05/08 09:49:19;;;;;;;5.12;1.98;;;18.80;99.90;;;;;;1926828;73;21644;-81
2023/05/08 09:52:14;;;;;;;2.00;1.80;;;18.80;99.90;;;;;;1916836;75;21774;-81
2023/05/08 09:55:09;;;;;;;2.77;1.82;;;18.80;99.90;;;;;;1916994;75;21175;-80
2023/05/08 09:58:02;;;;;;;2.45;2.02;;;18.80;99.90;;;;;;1916822;75;21122;-81
2023/05/08 10:00:53;;;;;;;2.85;1.95;;;18.90;99.90;;;;;;1939532;73;21109;-81
2023/05/08 10:03:48;;;;;;;2.35;1.50;;;19.10;99.90;;;;;;1939499;73;21094;-81
2023/05/08 10:06:40;;;;;;;3.15;2.00;;;19.00;99.90;;;;;;1916750;75;21114;-80
2023/05/08 10:09:31;;;;;;;2.92;1.92;;;19.10;99.90;;;;;;1916704;75;21176;-80
2023/05/08 10:12:24;;;;;;;2.05;1.77;;;19.20;99.90;;;;;;1916691;75;21129;-80
2023/05/08 10:15:16;;;;;;;2.25;1.82;;;19.30;99.90;;;;;;1916707;75;21260;-80
2023/05/08 10:18:10;;;;;;;2.75;2.00;;;19.20;99.90;;;;;;1916529;75;21522;-80
2023/05/08 10:21:05;;;;;;;2.20;2.00;;;19.20;99.90;;;;;;1916488;75;21164;-80
2023/05/08 10:23:59;;;;;;;2.33;2.00;;;19.30;99.90;;;;;;1916905;75;21160;-80
2023/05/08 10:26:55;;;;;;;2.77;2.25;;;19.50;99.90;;;;;;1916875;75;22083;-79
2023/05/08 10:29:51;;;;;;;2.60;2.00;;;19.50;99.90;;;;;;1921456;73;21157;-80
2023/05/08 10:32:45;;;;;;;2.25;1.80;;;19.70;99.90;;;;;;1928074;73;21106;-80
2023/05/08 10:35:38;;;;;;;2.87;2.17;;;19.70;99.90;;;;;;1931949;73;21164;-80
2023/05/08 10:38:28;;;;;;;3.12;1.85;;;19.70;99.90;;;;;;1937931;73;21168;-80
2023/05/08 10:41:20;;;;;;;2.72;2.10;;;19.80;99.90;;;;;;1916922;75;21113;-80
2023/05/08 10:44:13;;;;;;;3.08;1.82;;;19.90;99.90;;;;;;1916718;74;21203;-80
2023/05/08 10:47:10;;;;;;;2.47;2.15;;;20.10;99.90;;;;;;1904433;75;21209;-80
2023/05/08 10:50:06;;;;;;;2.03;1.60;;;20.10;99.90;;;;;;1919513;74;21114;-80
2023/05/08 10:53:02;;;;;;;1.80;1.40;;;20.20;99.90;;;;;;1916281;75;21067;-80
2023/05/08 10:55:56;;;;;;;1.75;1.62;;;20.10;99.90;;;;;;1916106;75;21167;-80
2023/05/08 10:58:48;;;;;;;2.12;1.90;;;20.00;99.90;;;;;;1916141;75;21179;-80
2023/05/08 11:04:22;;;;;;;1.95;1.60;;;20.00;99.90;;;;;;1943405;72;22200;-89
2023/05/08 11:07:13;;;;;;;1.82;1.72;;;19.90;99.90;;;;;;1893986;75;21079;-80
2023/05/08 11:10:15;;;;;;;2.10;1.50;;;20.00;99.90;;;;;;1905475;75;21200;-78
2023/05/08 11:13:08;;;;;;;1.52;1.42;;;20.00;99.90;;;;;;1902774;75;21090;-79
2023/05/08 11:25:47;;;;;;;2.22;1.80;;;20.00;99.90;;;;;;1946683;70;21146;-76
2023/05/08 11:28:40;;;;;;;2.37;1.87;;;20.10;99.90;;;;;;1979132;72;21545;-76
2023/05/08 11:31:52;;;;;;;2.00;1.65;;;20.20;99.90;;;;;;1912521;74;21115;-75
2023/05/08 11:34:52;;;;;;;2.22;1.90;;;20.20;99.90;;;;;;1919948;74;21145;-76
2023/05/08 11:37:50;;;;;;;2.00;1.75;;;20.10;99.90;;;;;;1926311;74;21184;-75
2023/05/08 11:40:49;;;;;;;1.65;1.52;;;20.00;99.90;;;;;;1911694;74;21097;-76
2023/05/08 11:44:13;;;;;;;1.35;1.25;;;20.10;99.90;;;;;;1941337;73;21098;-75
2023/05/08 11:47:06;;;;;;;1.50;1.40;;;20.10;99.90;;;;;;1922886;74;21166;-75
2023/05/08 11:49:57;;;;;;;1.72;1.00;;;19.90;99.90;;;;;;1922577;74;21102;-76
2023/05/08 11:52:51;;;;;;;2.83;1.27;;;19.90;99.90;;;;;;1926117;73;21138;-75
2023/05/08 11:55:42;;;;;;;2.22;1.30;;;19.80;99.90;;;;;;1922448;74;21093;-76
2023/05/08 11:58:35;;;;;;;2.02;0.85;;;19.70;99.90;;;;;;1965819;72;21101;-75
2023/05/08 12:01:26;;;;;;;2.47;1.02;;;19.80;99.90;;;;;;1912191;74;21094;-75
2023/05/08 12:04:18;;;;;;;1.95;1.17;;;19.90;99.90;;;;;;1912209;74;21576;-75
2023/05/08 12:07:11;;;;;;;2.70;1.20;;;19.70;99.90;;;;;;1976443;72;21097;-75
2023/05/08 12:10:04;;;;;;;1.72;1.20;;;19.80;99.90;;;;;;1967926;72;21078;-76
2023/05/08 12:12:55;;;;;;;2.58;1.20;;;19.80;99.90;;;;;;1980819;72;21130;-76
2023/05/08 12:15:48;;;;;;;1.50;1.40;;;19.70;99.90;;;;;;1958354;72;21152;-75
2023/05/08 12:18:41;;;;;;;3.00;1.55;;;19.80;99.90;;;;;;1958359;72;21094;-75
2023/05/08 12:21:32;;;;;;;1.30;0.90;;;19.90;99.90;;;;;;1958577;72;21080;-75
2023/05/08 12:24:25;;;;;;;2.17;1.15;;;19.90;99.90;;;;;;1963279;72;21030;-76
2023/05/08 12:27:16;;;;;;;2.27;1.17;;;19.70;99.90;;;;;;1935038;73;21093;-76
2023/05/08 12:30:10;;;;;;;1.47;1.00;;;19.70;99.90;;;;;;1956669;72;21035;-75
2023/05/08 12:33:04;;;;;;;1.42;0.90;;;19.80;99.90;;;;;;1912257;74;21136;-75
2023/05/08 12:35:56;;;;;;;1.80;1.00;;;20.00;99.90;;;;;;1906361;74;21092;-75
2023/05/08 12:38:47;;;;;;;1.40;1.05;;;20.00;99.90;;;;;;1907401;74;21193;-75
2023/05/08 12:41:49;;;;;;;3.47;1.20;;;20.00;99.90;;;;;;1903481;74;21118;-75
2023/05/08 12:44:42;;;;;;;1.32;1.17;;;20.10;99.90;;;;;;1919190;74;21115;-75
2023/05/08 12:50:16;;;;;;;1.07;0.93;;;20.30;99.90;;;;;;1956446;72;22233;-75
2023/05/08 12:53:10;;;;;;;1.95;0.80;;;20.30;99.90;;;;;;1905816;75;21187;-75
2023/05/08 12:56:04;;;;;;;1.00;0.78;;;20.40;99.90;;;;;;1884175;75;21154;-75
2023/05/08 12:58:59;;;;;;;1.02;0.80;;;20.40;99.90;;;;;;1906313;75;21099;-75
2023/05/08 13:01:52;;;;;;;1.65;0.85;;;20.50;99.90;;;;;;1884082;76;21159;-74
2023/05/08 13:04:44;;;;;;;3.02;0.98;;;20.70;99.90;;;;;;1898985;75;21063;-75
2023/05/08 13:07:35;;;;;;;1.00;0.70;;;20.70;99.90;;;;;;1895044;75;21098;-75
2023/05/08 13:10:26;;;;;;;0.78;0.60;;;20.80;99.90;;;;;;1894503;75;21268;-75
2023/05/08 13:13:19;;;;;;;0.60;0.60;;;21.10;99.90;;;;;;1895195;75;21175;-76
2023/05/08 13:16:11;;;;;;;1.00;0.75;;;21.00;99.90;;;;;;1901035;75;21141;-76
2023/05/08 13:19:04;;;;;;;1.62;0.90;;;21.00;99.90;;;;;;1895279;75;21110;-75
2023/05/08 13:21:55;;;;;;;1.47;0.82;;;21.00;99.90;;;;;;1894348;75;21191;-76
2023/05/08 13:24:46;;;;;;;1.17;0.80;;;21.00;99.90;;;;;;1894694;75;21168;-75
2023/05/08 13:27:37;;;;;;;1.20;0.70;;;21.10;99.90;;;;;;1898842;75;21630;-76
2023/05/08 13:30:29;;;;;;;1.75;0.80;;;21.10;99.90;;;;;;1897349;75;21152;-76
2023/05/08 13:33:20;;;;;;;2.00;0.90;;;21.20;99.90;;;;;;1894783;75;21099;-76
2023/05/08 13:36:11;;;;;;;1.10;0.88;;;21.20;99.90;;;;;;1894657;75;21157;-75
2023/05/08 13:39:03;;;;;;;1.42;0.50;;;21.10;99.90;;;;;;1897474;75;21191;-75
2023/05/08 13:41:54;;;;;;;1.75;0.70;;;21.00;99.90;;;;;;1898000;75;21114;-76
2023/05/08 13:44:45;;;;;;;0.98;0.70;;;20.80;99.90;;;;;;1894751;75;21176;-76
2023/05/08 13:47:37;;;;;;;2.08;0.70;;;20.90;99.90;;;;;;1894765;75;21118;-75
2023/05/08 13:50:29;;;;;;;0.93;0.70;;;21.00;99.90;;;;;;1897014;74;21184;-75
2023/05/08 13:56:03;;;;;;;2.58;0.90;;;21.50;99.90;;;;;;1956384;72;22225;-75
2023/05/08 13:58:54;;;;;;;1.15;0.80;;;21.60;99.90;;;;;;1895017;74;21114;-75
2023/05/08 14:01:45;;;;;;;1.15;0.80;;;21.70;99.90;;;;;;1883437;76;21114;-75
2023/05/08 14:04:36;;;;;;;1.80;0.65;;;21.90;99.90;;;;;;1883794;76;21106;-75
2023/05/08 14:07:28;;;;;;;0.82;0.80;;;22.00;99.90;;;;;;1914156;75;21209;-76
2023/05/08 14:10:20;;;;;;;0.85;0.60;;;22.20;99.90;;;;;;1894980;75;21146;-76
2023/05/08 14:13:11;;;;;;;0.60;0.60;;;22.00;99.90;;;;;;1900026;75;21192;-76
2023/05/08 14:16:03;;;;;;;0.88;0.70;;;21.90;99.90;;;;;;1895343;75;21123;-76
2023/05/08 14:18:55;;;;;;;2.30;0.90;;;21.90;99.90;;;;;;1894883;75;21097;-76
2023/05/08 14:21:47;;;;;;;0.70;0.70;;;21.40;99.90;;;;;;1893230;75;21646;-76
2023/05/08 14:24:38;;;;;;;2.08;0.70;;;21.50;99.90;;;;;;1906629;75;21195;-76
2023/05/08 14:30:10;;;;;;;0.95;0.70;;;22.10;99.90;;;;;;1918956;72;22240;-75
2023/05/08 14:33:02;;;;;;;1.02;0.88;;;22.10;99.90;;;;;;1913159;73;21634;-76
2023/05/08 14:35:54;;;;;;;0.90;0.60;;;22.20;99.90;;;;;;1908528;75;21200;-76
2023/05/08 14:41:25;;;;;;;0.45;0.45;;;22.70;99.90;;;;;;1933375;72;22271;-75
2023/05/08 14:44:16;;;;;;;1.50;0.70;;;22.70;99.90;;;;;;1911563;75;21183;-76
2023/05/08 14:47:08;;;;;;;1.20;0.62;;;22.70;99.90;;;;;;1898985;75;21139;-75
2023/05/08 14:49:59;;;;;;;1.40;0.70;;;22.80;99.90;;;;;;1913473;75;21048;-76
2023/05/08 14:55:29;;;;;;;1.15;0.45;;;23.10;99.90;;;;;;1944461;72;22319;-75
2023/05/08 14:58:21;;;;;;;1.02;0.50;;;23.20;99.90;;;;;;1888862;75;21228;-75
2023/05/08 15:01:12;;;;;;;0.55;0.50;;;23.50;99.90;;;;;;1887926;75;21141;-75
2023/05/08 15:04:03;;;;;;;0.53;0.50;;;23.60;99.90;;;;;;1908352;75;21150;-75
2023/05/08 15:06:55;;;;;;;1.22;0.50;;;23.60;99.90;;;;;;1905090;74;21047;-75
2023/05/08 15:09:46;;;;;;;0.50;0.50;;;23.80;99.90;;;;;;1888426;75;21416;-75
2023/05/08 15:12:37;;;;;;;0.70;0.50;;;23.70;99.90;;;;;;1884164;75;21179;-75
2023/05/08 15:15:29;;;;;;;0.88;0.60;;;23.60;99.90;;;;;;1907471;75;21210;-75
2023/05/08 15:18:22;;;;;;;0.40;0.40;;;23.70;99.90;;;;;;1910001;74;21110;-76
2023/05/08 15:21:14;;;;;;;0.50;0.50;;;24.00;99.90;;;;;;1890126;75;21195;-75
2023/05/08 15:24:07;;;;;;;1.25;0.50;;;24.20;99.90;;;;;;1901092;75;21117;-76
2023/05/08 15:26:58;;;;;;;0.93;0.50;;;24.00;99.90;;;;;;1899950;75;21095;-75
2023/05/08 15:29:50;;;;;;;0.90;0.42;;;24.00;99.90;;;;;;1905674;75;21066;-76
2023/05/08 15:32:42;;;;;;;1.25;0.60;;;24.00;99.90;;;;;;1904629;75;21086;-76
2023/05/08 15:35:33;;;;;;;0.78;0.60;;;24.00;99.90;;;;;;1892834;74;21489;-76
2023/05/08 15:38:25;;;;;;;1.32;0.40;;;24.20;99.90;;;;;;1910150;75;21047;-75
2023/05/08 15:41:16;;;;;;;0.50;0.50;;;24.40;99.90;;;;;;1895950;75;21131;-76
2023/05/08 15:44:08;;;;;;;1.40;0.50;;;24.70;99.90;;;;;;1891355;75;21143;-76
2023/05/08 15:47:00;;;;;;;1.75;0.55;;;24.30;99.90;;;;;;1886374;75;21205;-76
2023/05/08 15:49:51;;;;;;;0.82;0.53;;;24.30;99.90;;;;;;1901822;75;21118;-76
2023/05/08 15:52:42;;;;;;;1.50;0.65;;;24.40;99.90;;;;;;1891073;75;21094;-76
2023/05/08 15:55:34;;;;;;;0.93;0.37;;;23.80;99.90;;;;;;1901440;75;21141;-75
2023/05/08 15:58:26;;;;;;;1.77;0.40;;;23.60;99.90;;;;;;1905404;75;21409;-76
2023/05/08 16:03:58;;;;;;;0.95;0.57;;;23.70;99.90;;;;;;1934127;72;22177;-74
2023/05/08 16:09:28;;;;;;;1.22;0.60;;;24.20;99.90;;;;;;1946812;72;22256;-75